Main page
METAR-TAF:

METAR-TAF

Airports :

Wahoo Municipal Airport

Wahoo, Nebraska, United States

latitude: 41-14-26N, longitude: 096-35-40W, elevation: 1223 ft

Current weather observation

The report was made 36 minutes ago, at 23:35 UTC
Wind 10 mph from the South
Temperature 99°F
Humidity 45%
Pressure 29.67 in. Hg
Visibility: 10 miles
Clear sky

METAR: KAHQ 242335Z AUTO 18009KT 10SM CLR 37/23 A2967 RMK AO2 T03670228

Time: 19:11 (00:11 UTC)


TAF: missing

Weather observations and forecasts of more than 4000 airports (METAR and TAF reports).

The available stations are represented by yellow and red dots on the map.

Hover mouse over dot to see the name of the station.

Then click to see weather observations and forecasts.

To change the map : click on the green buttons with a black cross to zoom in, on the green button with a dash to zoom out, or on the green arrows for adjacent maps.


METAR-TAF: